Terminal Aerodrome Forecast
Issued by NWS

Home | Current Version | Previous Version | Text Only | Print | Product List | Glossary On
Versions: 1 2 3 4 5 6 7 8 9 10 11 12
019
FTUS44 KSJT 080527
TAFBBD
TAF
KBBD 080527Z 0806/0906 35010KT P6SM SCT250
     FM081700 33013G20KT P6SM FEW250
     FM090000 30009KT P6SM SKC
      AMD NOT SKED=

USA.gov is the U.S. government's official web portal to all federal, state and local government web resources and services.